Time;durP1;ratioP1;P1;durP2;ratioP2;P2;SDS_P1;SDS_P2;PMS_P1;PMS_P2;Temp;Humidity;BMP_temperature;BMP_pressure;BME280_temperature;BME280_humidity;BME280_pressure;Samples;Min_cycle;Max_cycle;Signal;HPM_P1;HPM_P2
2023/01/08 00:03:36;;;;;;;17.65;10.63;;;;;;;;;;10336701;28;20037;-47
2023/01/08 00:08:37;;;;;;;16.83;10.45;;;;;;;;;;10330403;28;20113;-50
2023/01/08 00:13:38;;;;;;;18.45;10.15;;;;;;;;;;10327521;28;20036;-47
2023/01/08 00:18:38;;;;;;;18.50;9.82;;;;;;;;;;10328362;28;20030;-48
2023/01/08 00:23:39;;;;;;;19.75;10.45;;;;;;;;;;10328630;28;20023;-54
2023/01/08 00:28:40;;;;;;;14.70;9.48;;;;;;;;;;10325119;28;20046;-48
2023/01/08 00:33:41;;;;;;;19.45;9.35;;;;;;;;;;10325188;28;20484;-55
2023/01/08 00:38:43;;;;;;;12.20;8.90;;;;;;;;;;10327553;28;20114;-57
2023/01/08 00:43:43;;;;;;;14.43;8.90;;;;;;;;;;10325505;28;20038;-55
2023/01/08 00:48:44;;;;;;;15.52;9.68;;;;;;;;;;10328330;28;20389;-48
2023/01/08 00:53:45;;;;;;;15.98;9.70;;;;;;;;;;10324214;28;20100;-53
2023/01/08 00:58:45;;;;;;;12.68;8.88;;;;;;;;;;10339615;28;20045;-53
2023/01/08 01:03:46;;;;;;;13.85;8.80;;;;;;;;;;10332659;28;20434;-55
2023/01/08 01:08:47;;;;;;;13.30;8.75;;;;;;;;;;10334159;28;20027;-52
2023/01/08 01:13:48;;;;;;;14.35;9.45;;;;;;;;;;10337165;28;20034;-57
2023/01/08 01:18:51;;;;;;;13.65;9.40;;;;;;;;;;10335052;28;20068;-56
2023/01/08 01:24:03;;;;;;;12.82;9.02;;;;;;;;;;10333639;28;20022;-54
2023/01/08 01:29:05;;;;;;;11.95;8.63;;;;;;;;;;10363372;28;20041;-57
2023/01/08 01:34:05;;;;;;;17.02;8.93;;;;;;;;;;10351333;28;20030;-54
2023/01/08 01:39:06;;;;;;;12.55;8.27;;;;;;;;;;10335251;28;20022;-54
2023/01/08 01:44:41;;;;;;;19.33;9.27;;;;;;;;;;10335999;28;20098;-57
2023/01/08 01:50:12;;;;;;;14.60;9.60;;;;;;;;;;10332783;28;20021;-47
2023/01/08 01:55:14;;;;;;;13.32;8.18;;;;;;;;;;10350242;28;20065;-56
2023/01/08 02:00:15;;;;;;;11.13;7.90;;;;;;;;;;10356114;28;20030;-50
2023/01/08 02:05:16;;;;;;;11.63;8.50;;;;;;;;;;10338218;28;20049;-55
2023/01/08 02:10:38;;;;;;;12.48;8.73;;;;;;;;;;10359374;28;20037;-57
2023/01/08 02:16:06;;;;;;;15.82;8.65;;;;;;;;;;10345213;28;20148;-58
2023/01/08 02:21:11;;;;;;;13.93;8.20;;;;;;;;;;10369976;28;20026;-55
2023/01/08 02:26:33;;;;;;;10.80;8.02;;;;;;;;;;10348749;28;20045;-56
2023/01/08 02:31:37;;;;;;;13.02;8.40;;;;;;;;;;10304447;28;20057;-57
2023/01/08 02:36:51;;;;;;;9.77;7.72;;;;;;;;;;10331672;28;20038;-57
2023/01/08 02:42:02;;;;;;;11.75;7.80;;;;;;;;;;10341341;28;20049;-56
2023/01/08 02:47:09;;;;;;;11.70;7.72;;;;;;;;;;10321273;28;20470;-58
2023/01/08 02:52:13;;;;;;;12.13;7.78;;;;;;;;;;10357236;28;20452;-57
2023/01/08 02:57:16;;;;;;;12.30;8.25;;;;;;;;;;10335427;28;20076;-57
2023/01/08 03:02:16;;;;;;;10.32;7.60;;;;;;;;;;10326179;28;20032;-58
2023/01/08 03:07:17;;;;;;;10.10;7.75;;;;;;;;;;10329126;28;20041;-58
2023/01/08 03:12:44;;;;;;;11.73;7.63;;;;;;;;;;10330133;28;20030;-57
2023/01/08 03:17:49;;;;;;;12.30;8.25;;;;;;;;;;10330182;28;20045;-52
2023/01/08 03:22:54;;;;;;;10.13;7.00;;;;;;;;;;10326726;28;20027;-53
2023/01/08 03:28:04;;;;;;;11.68;7.65;;;;;;;;;;10329613;28;20650;-56
2023/01/08 03:33:06;;;;;;;10.15;6.90;;;;;;;;;;10329653;28;20042;-57
2023/01/08 03:38:23;;;;;;;9.55;7.22;;;;;;;;;;10319800;28;20080;-56
2023/01/08 03:43:25;;;;;;;10.35;7.22;;;;;;;;;;10327916;28;20038;-55
2023/01/08 03:48:27;;;;;;;10.65;7.40;;;;;;;;;;10328651;28;20035;-58
2023/01/08 03:53:28;;;;;;;10.15;7.18;;;;;;;;;;10328520;28;20030;-57
2023/01/08 03:58:28;;;;;;;14.30;7.97;;;;;;;;;;10344013;28;20449;-55
2023/01/08 04:03:29;;;;;;;9.10;7.15;;;;;;;;;;10329617;28;20022;-57
2023/01/08 04:08:29;;;;;;;8.95;6.20;;;;;;;;;;10329065;28;20026;-55
2023/01/08 04:13:30;;;;;;;10.70;7.05;;;;;;;;;;10328675;28;20023;-57
2023/01/08 04:18:31;;;;;;;9.18;6.60;;;;;;;;;;10328151;28;20034;-54
2023/01/08 04:23:31;;;;;;;10.52;6.25;;;;;;;;;;10328450;28;20026;-56
2023/01/08 04:28:32;;;;;;;9.98;7.25;;;;;;;;;;10327861;28;20046;-57
2023/01/08 04:33:33;;;;;;;9.23;6.70;;;;;;;;;;10327790;28;20540;-49
2023/01/08 04:38:34;;;;;;;11.32;6.55;;;;;;;;;;10322992;28;20470;-55
2023/01/08 04:43:34;;;;;;;9.73;6.65;;;;;;;;;;10336301;28;20037;-51
2023/01/08 04:48:35;;;;;;;8.05;5.90;;;;;;;;;;10325870;28;20121;-50
2023/01/08 04:53:36;;;;;;;9.55;6.38;;;;;;;;;;10334400;28;20027;-51
2023/01/08 04:58:38;;;;;;;8.48;5.95;;;;;;;;;;10330099;28;21060;-52
2023/01/08 05:03:39;;;;;;;8.98;6.22;;;;;;;;;;10327570;28;20022;-56
2023/01/08 05:08:40;;;;;;;7.88;6.45;;;;;;;;;;10326922;28;20034;-50
2023/01/08 05:13:40;;;;;;;7.72;6.10;;;;;;;;;;10332671;28;20022;-56
2023/01/08 05:18:41;;;;;;;6.85;5.47;;;;;;;;;;10347059;28;20034;-57
2023/01/08 05:23:46;;;;;;;8.00;5.65;;;;;;;;;;10333142;28;20022;-56
2023/01/08 05:28:47;;;;;;;9.30;6.22;;;;;;;;;;10329973;28;20101;-56
2023/01/08 05:33:47;;;;;;;10.95;6.45;;;;;;;;;;10325731;28;20084;-57
2023/01/08 05:38:48;;;;;;;7.47;5.88;;;;;;;;;;10335964;28;20119;-57
2023/01/08 05:43:48;;;;;;;7.47;5.95;;;;;;;;;;10343365;28;20035;-58
2023/01/08 05:48:49;;;;;;;7.95;6.53;;;;;;;;;;10360034;28;20413;-57
2023/01/08 05:53:49;;;;;;;7.10;5.57;;;;;;;;;;10335806;28;20038;-57
2023/01/08 05:58:54;;;;;;;7.18;5.78;;;;;;;;;;10345513;28;20026;-54
2023/01/08 06:03:55;;;;;;;7.78;5.53;;;;;;;;;;10353674;28;20041;-57
2023/01/08 06:08:56;;;;;;;10.32;5.90;;;;;;;;;;10360474;28;20473;-57
2023/01/08 06:13:56;;;;;;;8.00;5.65;;;;;;;;;;10381188;28;20026;-53
2023/01/08 06:18:57;;;;;;;8.75;5.88;;;;;;;;;;10349669;28;20026;-54
2023/01/08 06:23:57;;;;;;;8.88;5.90;;;;;;;;;;10331424;28;20023;-56
2023/01/08 06:28:58;;;;;;;6.78;5.30;;;;;;;;;;10331232;28;20047;-56
2023/01/08 06:33:58;;;;;;;7.20;5.38;;;;;;;;;;10331809;28;20030;-51
2023/01/08 06:38:59;;;;;;;8.30;5.45;;;;;;;;;;10333668;28;20092;-55
2023/01/08 06:44:00;;;;;;;7.63;5.80;;;;;;;;;;10341939;28;20096;-52
2023/01/08 06:49:00;;;;;;;6.85;5.47;;;;;;;;;;10339743;28;20033;-52
2023/01/08 06:54:01;;;;;;;7.22;5.43;;;;;;;;;;10330751;28;20022;-53
2023/01/08 06:59:02;;;;;;;8.45;5.78;;;;;;;;;;10330941;28;20030;-51
2023/01/08 07:04:03;;;;;;;10.38;5.38;;;;;;;;;;10330369;28;20018;-57
2023/01/08 07:09:03;;;;;;;7.38;5.70;;;;;;;;;;10329265;28;20026;-56
2023/01/08 07:14:04;;;;;;;8.57;5.38;;;;;;;;;;10330571;28;20018;-57
2023/01/08 07:19:04;;;;;;;9.18;6.07;;;;;;;;;;10326976;28;20034;-57
2023/01/08 07:24:06;;;;;;;6.78;4.90;;;;;;;;;;10329607;28;20030;-53
2023/01/08 07:29:07;;;;;;;7.28;5.70;;;;;;;;;;10327926;28;20312;-56
2023/01/08 07:34:07;;;;;;;9.05;5.75;;;;;;;;;;10330606;28;20570;-57
2023/01/08 07:39:08;;;;;;;16.10;6.18;;;;;;;;;;10321005;28;20038;-58
2023/01/08 07:44:09;;;;;;;9.35;5.97;;;;;;;;;;10326881;28;20497;-54
2023/01/08 07:49:10;;;;;;;7.93;5.57;;;;;;;;;;10339445;28;20397;-56
2023/01/08 07:54:11;;;;;;;10.20;5.28;;;;;;;;;;10339172;28;20033;-55
2023/01/08 07:59:11;;;;;;;10.55;5.32;;;;;;;;;;10344416;28;20040;-56
2023/01/08 08:04:15;;;;;;;9.30;5.70;;;;;;;;;;10346691;28;20486;-54
2023/01/08 08:09:15;;;;;;;11.13;5.43;;;;;;;;;;10339701;28;20042;-57
2023/01/08 08:14:16;;;;;;;10.73;5.78;;;;;;;;;;10339366;28;20034;-57
2023/01/08 08:19:16;;;;;;;6.88;5.40;;;;;;;;;;10338849;28;20034;-57
2023/01/08 08:24:17;;;;;;;7.35;5.22;;;;;;;;;;10327987;28;20025;-56
2023/01/08 08:29:17;;;;;;;8.52;5.47;;;;;;;;;;10325508;28;20061;-47
2023/01/08 08:34:21;;;;;;;32.35;9.90;;;;;;;;;;10325959;28;20088;-60
2023/01/08 08:39:21;;;;;;;27.13;11.68;;;;;;;;;;10329544;28;20042;-60
2023/01/08 08:44:22;;;;;;;20.75;12.50;;;;;;;;;;10324512;28;20504;-60
2023/01/08 08:49:23;;;;;;;23.23;12.90;;;;;;;;;;10319365;28;20031;-60
2023/01/08 08:54:23;;;;;;;25.75;12.93;;;;;;;;;;10331528;28;20026;-60
2023/01/08 08:59:24;;;;;;;23.00;12.15;;;;;;;;;;10328085;28;20045;-59
2023/01/08 09:04:24;;;;;;;18.80;11.63;;;;;;;;;;10338873;28;20038;-57
2023/01/08 09:09:25;;;;;;;21.15;10.65;;;;;;;;;;10323536;28;20379;-58
2023/01/08 09:14:26;;;;;;;21.00;10.23;;;;;;;;;;10322331;28;20436;-57
2023/01/08 09:19:27;;;;;;;22.48;11.45;;;;;;;;;;10325510;28;20046;-56
2023/01/08 09:24:27;;;;;;;16.10;10.07;;;;;;;;;;10321760;28;20046;-52
2023/01/08 09:29:28;;;;;;;19.60;10.68;;;;;;;;;;10325301;28;20042;-51
2023/01/08 09:34:30;;;;;;;19.77;10.90;;;;;;;;;;10325549;28;20578;-63
2023/01/08 09:39:32;;;;;;;18.42;9.77;;;;;;;;;;10327449;28;20026;-60
2023/01/08 09:44:39;;;;;;;16.55;8.55;;;;;;;;;;10340095;28;20045;-57
2023/01/08 09:49:44;;;;;;;16.02;9.82;;;;;;;;;;10328618;28;20030;-52
2023/01/08 09:54:45;;;;;;;22.40;9.40;;;;;;;;;;10335610;28;20490;-57
2023/01/08 09:59:47;;;;;;;19.38;8.90;;;;;;;;;;10339400;28;20030;-59
2023/01/08 10:04:54;;;;;;;25.20;9.10;;;;;;;;;;10352481;28;20048;-59
2023/01/08 10:09:55;;;;;;;16.20;9.43;;;;;;;;;;10338841;28;20022;-59
2023/01/08 10:15:06;;;;;;;14.93;9.27;;;;;;;;;;10333984;28;20034;-59
2023/01/08 10:20:18;;;;;;;16.63;8.93;;;;;;;;;;10351308;28;20449;-60
2023/01/08 10:25:26;;;;;;;13.77;8.48;;;;;;;;;;10325798;28;20054;-59
2023/01/08 10:30:29;;;;;;;21.40;9.55;;;;;;;;;;10331138;28;20054;-59
2023/01/08 10:35:41;;;;;;;15.07;9.18;;;;;;;;;;10328855;28;20312;-58
2023/01/08 10:40:47;;;;;;;13.65;8.60;;;;;;;;;;10328848;28;20018;-58
2023/01/08 10:46:26;;;;;;;19.40;8.57;;;;;;;;;;10328424;28;20041;-58
2023/01/08 10:51:29;;;;;;;17.88;8.68;;;;;;;;;;10334256;28;20049;-55
2023/01/08 10:56:42;;;;;;;16.17;8.55;;;;;;;;;;10330834;28;20048;-58
2023/01/08 11:01:46;;;;;;;14.55;8.07;;;;;;;;;;10330294;28;20045;-59
2023/01/08 11:06:47;;;;;;;15.25;8.38;;;;;;;;;;10334466;28;20030;-69
2023/01/08 11:11:48;;;;;;;27.20;8.80;;;;;;;;;;10362006;28;20026;-59
2023/01/08 11:16:49;;;;;;;26.65;9.25;;;;;;;;;;10357999;28;20034;-60
2023/01/08 11:22:01;;;;;;;20.35;10.32;;;;;;;;;;10312858;28;20045;-65
2023/01/08 11:27:33;;;;;;;22.08;9.40;;;;;;;;;;10331767;28;20410;-59
2023/01/08 11:33:09;;;;;;;16.83;9.82;;;;;;;;;;10330996;28;20057;-62
2023/01/08 11:38:12;;;;;;;16.85;9.40;;;;;;;;;;10337427;28;20059;-61
2023/01/08 11:43:41;;;;;;;15.32;8.50;;;;;;;;;;10356040;28;20029;-61
2023/01/08 11:49:24;;;;;;;16.42;9.00;;;;;;;;;;10316280;28;20084;-59
2023/01/08 11:54:52;;;;;;;15.93;9.52;;;;;;;;;;10322526;28;20038;-61
2023/01/08 12:00:27;;;;;;;12.90;8.77;;;;;;;;;;10327059;28;20141;-60
2023/01/08 12:05:33;;;;;;;16.17;8.40;;;;;;;;;;10319345;28;20030;-60
2023/01/08 12:10:59;;;;;;;16.33;9.35;;;;;;;;;;10324456;28;20479;-60
2023/01/08 12:16:08;;;;;;;16.42;8.85;;;;;;;;;;10325124;28;20030;-57
2023/01/08 12:22:05;;;;;;;14.13;8.40;;;;;;;;;;10326460;28;20647;-58
2023/01/08 12:27:53;;;;;;;15.50;8.73;;;;;;;;;;10314131;28;20478;-56
2023/01/08 12:33:08;;;;;;;15.15;8.35;;;;;;;;;;10314813;28;20038;-55
2023/01/08 12:38:25;;;;;;;13.05;8.40;;;;;;;;;;10319692;28;20462;-56
2023/01/08 12:43:34;;;;;;;14.30;8.13;;;;;;;;;;10323384;28;20057;-52
2023/01/08 12:48:35;;;;;;;14.60;8.80;;;;;;;;;;10340535;28;20368;-48
2023/01/08 12:54:01;;;;;;;12.65;8.23;;;;;;;;;;10325148;28;20026;-61
2023/01/08 12:59:05;;;;;;;11.93;8.20;;;;;;;;;;10316115;28;20046;-60
2023/01/08 13:04:08;;;;;;;14.52;7.88;;;;;;;;;;10327044;28;20022;-56
2023/01/08 13:09:23;;;;;;;14.02;7.85;;;;;;;;;;10333815;28;20034;-59
2023/01/08 13:14:25;;;;;;;11.82;8.40;;;;;;;;;;10332638;28;20041;-59
2023/01/08 13:19:44;;;;;;;11.90;8.77;;;;;;;;;;10343763;28;20056;-54
2023/01/08 13:24:44;;;;;;;11.95;7.63;;;;;;;;;;10328428;28;20030;-60
2023/01/08 13:29:50;;;;;;;12.27;7.70;;;;;;;;;;10332704;28;20410;-60
2023/01/08 13:35:21;;;;;;;10.35;7.40;;;;;;;;;;10327595;28;20045;-59
2023/01/08 13:40:43;;;;;;;11.68;7.72;;;;;;;;;;10340669;28;20026;-62
2023/01/08 13:45:52;;;;;;;10.77;8.02;;;;;;;;;;10356223;28;20137;-60
2023/01/08 13:50:53;;;;;;;10.60;7.47;;;;;;;;;;10348777;28;20050;-53
2023/01/08 13:56:04;;;;;;;13.10;7.65;;;;;;;;;;10339792;28;20034;-59
2023/01/08 14:01:06;;;;;;;12.95;7.75;;;;;;;;;;10351838;28;20053;-57
2023/01/08 14:06:19;;;;;;;17.58;8.25;;;;;;;;;;10349436;28;20026;-61
2023/01/08 14:11:42;;;;;;;12.60;7.72;;;;;;;;;;10352199;28;20038;-60
2023/01/08 14:16:44;;;;;;;10.27;7.70;;;;;;;;;;10330168;28;20046;-61
2023/01/08 14:21:50;;;;;;;14.52;7.25;;;;;;;;;;10331197;28;20118;-46
2023/01/08 14:26:57;;;;;;;9.75;7.47;;;;;;;;;;10335355;28;20437;-59
2023/01/08 14:31:59;;;;;;;14.00;7.30;;;;;;;;;;10336034;28;20033;-57
2023/01/08 14:37:00;;;;;;;12.23;7.32;;;;;;;;;;10339614;28;20058;-61
2023/01/08 14:42:41;;;;;;;10.40;6.90;;;;;;;;;;10338813;28;20029;-58
2023/01/08 14:47:48;;;;;;;10.95;7.22;;;;;;;;;;10325855;28;20058;-57
2023/01/08 14:52:50;;;;;;;8.10;6.22;;;;;;;;;;10330954;28;20096;-57
2023/01/08 14:57:53;;;;;;;10.68;7.07;;;;;;;;;;10332270;28;20030;-58
2023/01/08 15:02:54;;;;;;;12.10;6.55;;;;;;;;;;10332324;28;20034;-47
2023/01/08 15:08:20;;;;;;;10.25;6.40;;;;;;;;;;10331824;28;20056;-45
2023/01/08 15:13:28;;;;;;;11.90;6.68;;;;;;;;;;10332242;28;20094;-47
2023/01/08 15:18:29;;;;;;;14.32;6.43;;;;;;;;;;10331744;28;20023;-45
2023/01/08 15:23:41;;;;;;;10.55;6.57;;;;;;;;;;10333856;28;20022;-45
2023/01/08 15:29:01;;;;;;;10.45;6.85;;;;;;;;;;10331167;28;20046;-45
2023/01/08 15:34:02;;;;;;;8.68;6.22;;;;;;;;;;10332722;28;20034;-45
2023/01/08 15:39:04;;;;;;;11.43;6.90;;;;;;;;;;10339984;28;20100;-51
2023/01/08 15:44:05;;;;;;;10.95;6.30;;;;;;;;;;10335448;28;20030;-60
2023/01/08 15:49:05;;;;;;;8.20;6.13;;;;;;;;;;10327926;28;20470;-57
2023/01/08 15:54:18;;;;;;;8.57;6.68;;;;;;;;;;10484196;28;20629;-55
2023/01/08 15:59:18;;;;;;;10.07;5.88;;;;;;;;;;10442811;28;20370;-58
2023/01/08 16:04:19;;;;;;;8.38;6.20;;;;;;;;;;10443164;28;20029;-54
2023/01/08 16:09:19;;;;;;;7.82;5.68;;;;;;;;;;10442165;28;20029;-49
2023/01/08 16:14:20;;;;;;;10.07;6.68;;;;;;;;;;10440893;28;20029;-48
2023/01/08 16:19:20;;;;;;;10.20;6.82;;;;;;;;;;10430384;28;20029;-53
2023/01/08 16:24:21;;;;;;;10.70;7.13;;;;;;;;;;10436100;28;20390;-53
2023/01/08 16:29:21;;;;;;;11.95;7.53;;;;;;;;;;10439357;28;20465;-55
2023/01/08 16:34:23;;;;;;;9.20;7.07;;;;;;;;;;10441271;28;20358;-51
2023/01/08 16:39:24;;;;;;;16.23;8.27;;;;;;;;;;10439635;28;20036;-52
2023/01/08 16:44:31;;;;;;;13.30;7.75;;;;;;;;;;10434516;28;20021;-48
2023/01/08 16:49:34;;;;;;;14.35;8.30;;;;;;;;;;10425580;28;20515;-56
2023/01/08 16:54:36;;;;;;;12.75;8.63;;;;;;;;;;10431408;28;20507;-53
2023/01/08 16:59:36;;;;;;;12.48;8.70;;;;;;;;;;10429639;28;20064;-45
2023/01/08 17:04:37;;;;;;;12.50;8.63;;;;;;;;;;10411347;28;20385;-45
2023/01/08 17:09:38;;;;;;;13.32;8.70;;;;;;;;;;10410238;28;20116;-50
2023/01/08 17:14:38;;;;;;;13.85;8.80;;;;;;;;;;10399772;28;20080;-45
2023/01/08 17:19:39;;;;;;;12.10;8.90;;;;;;;;;;10398791;28;20052;-49
2023/01/08 17:24:40;;;;;;;12.27;8.10;;;;;;;;;;10407779;28;20481;-44
2023/01/08 17:29:40;;;;;;;15.30;8.73;;;;;;;;;;10396892;28;20033;-49
2023/01/08 17:34:41;;;;;;;14.10;8.40;;;;;;;;;;10395261;28;20037;-45
2023/01/08 17:39:42;;;;;;;11.65;8.68;;;;;;;;;;10394821;28;20041;-47
2023/01/08 17:44:43;;;;;;;14.57;8.52;;;;;;;;;;10404741;28;20435;-45
2023/01/08 17:49:43;;;;;;;14.23;9.55;;;;;;;;;;10405874;28;20038;-45
2023/01/08 17:54:45;;;;;;;12.85;8.50;;;;;;;;;;10402369;28;20025;-62
2023/01/08 17:59:47;;;;;;;11.43;8.20;;;;;;;;;;10403219;28;20029;-44
2023/01/08 18:04:48;;;;;;;12.10;8.73;;;;;;;;;;10389961;28;20084;-57
2023/01/08 18:09:51;;;;;;;13.57;8.70;;;;;;;;;;10397392;28;20030;-61
2023/01/08 18:14:52;;;;;;;10.75;7.85;;;;;;;;;;10389071;28;20472;-45
2023/01/08 18:19:52;;;;;;;12.82;9.00;;;;;;;;;;10387684;28;20025;-47
2023/01/08 18:24:53;;;;;;;14.85;8.93;;;;;;;;;;10384712;28;20140;-45
2023/01/08 18:29:53;;;;;;;16.98;9.77;;;;;;;;;;10388241;28;20033;-45
2023/01/08 18:34:54;;;;;;;17.00;9.57;;;;;;;;;;10386077;28;20029;-45
2023/01/08 18:39:54;;;;;;;14.85;9.63;;;;;;;;;;10385503;28;20080;-48
2023/01/08 18:44:56;;;;;;;14.32;10.32;;;;;;;;;;10384256;28;20036;-46
2023/01/08 18:50:02;;;;;;;14.82;10.55;;;;;;;;;;10379337;28;20049;-49
2023/01/08 18:55:02;;;;;;;14.52;10.98;;;;;;;;;;10392198;28;20029;-48
2023/01/08 19:00:04;;;;;;;17.98;10.15;;;;;;;;;;10409296;28;20480;-46
2023/01/08 19:05:05;;;;;;;16.73;11.20;;;;;;;;;;10392539;28;20026;-48
2023/01/08 19:10:08;;;;;;;17.02;10.70;;;;;;;;;;10397078;28;20029;-44
2023/01/08 19:15:10;;;;;;;13.32;9.68;;;;;;;;;;10402245;28;20026;-44
2023/01/08 19:20:11;;;;;;;14.07;10.00;;;;;;;;;;10386746;28;20030;-46
2023/01/08 19:25:13;;;;;;;14.00;9.45;;;;;;;;;;10370723;28;20409;-45
2023/01/08 19:30:14;;;;;;;15.35;9.88;;;;;;;;;;10356631;28;20063;-49
2023/01/08 19:35:15;;;;;;;14.15;9.48;;;;;;;;;;10357840;28;20032;-57
2023/01/08 19:40:16;;;;;;;13.45;9.75;;;;;;;;;;10353252;28;20072;-56
2023/01/08 19:45:18;;;;;;;12.15;9.15;;;;;;;;;;10355278;28;22055;-50
2023/01/08 19:50:18;;;;;;;12.07;9.15;;;;;;;;;;10379680;28;20046;-46
2023/01/08 19:55:20;;;;;;;10.40;8.57;;;;;;;;;;10393659;28;20034;-51
2023/01/08 20:00:21;;;;;;;12.05;8.80;;;;;;;;;;10374578;28;20125;-52
2023/01/08 20:05:22;;;;;;;10.18;8.55;;;;;;;;;;10383829;28;20025;-46
2023/01/08 20:10:22;;;;;;;11.65;8.82;;;;;;;;;;10380410;28;20026;-46
2023/01/08 20:15:23;;;;;;;14.98;8.52;;;;;;;;;;10387427;28;20037;-46
2023/01/08 20:20:24;;;;;;;9.70;8.10;;;;;;;;;;10368805;28;20029;-50
2023/01/08 20:25:24;;;;;;;9.75;7.40;;;;;;;;;;10372694;28;20033;-45
2023/01/08 20:30:26;;;;;;;9.85;7.82;;;;;;;;;;10386602;28;20064;-47
2023/01/08 20:35:26;;;;;;;10.00;8.00;;;;;;;;;;10389340;28;20041;-46
2023/01/08 20:40:27;;;;;;;15.98;7.40;;;;;;;;;;10397448;28;20037;-50
2023/01/08 20:45:28;;;;;;;11.57;8.60;;;;;;;;;;10398535;28;20037;-58
2023/01/08 20:50:29;;;;;;;10.55;7.80;;;;;;;;;;10401861;28;20139;-55
2023/01/08 20:55:30;;;;;;;9.38;7.55;;;;;;;;;;10413790;28;20476;-48
2023/01/08 21:00:30;;;;;;;10.23;7.35;;;;;;;;;;10402993;28;20415;-49
2023/01/08 21:05:35;;;;;;;10.20;7.57;;;;;;;;;;10408653;28;20033;-59
2023/01/08 21:10:35;;;;;;;10.63;7.38;;;;;;;;;;10390366;28;20029;-49
2023/01/08 21:15:36;;;;;;;9.90;7.30;;;;;;;;;;10407342;28;20449;-46
2023/01/08 21:20:37;;;;;;;11.18;7.43;;;;;;;;;;10406557;28;20835;-53
2023/01/08 21:25:37;;;;;;;9.82;7.18;;;;;;;;;;10405278;28;20079;-46
2023/01/08 21:30:38;;;;;;;9.65;6.93;;;;;;;;;;10408090;28;20037;-50
2023/01/08 21:35:38;;;;;;;8.85;6.03;;;;;;;;;;10386043;28;20042;-48
2023/01/08 21:40:39;;;;;;;8.82;7.13;;;;;;;;;;10374379;28;20038;-57
2023/01/08 21:45:39;;;;;;;9.82;6.80;;;;;;;;;;10375904;28;20037;-57
2023/01/08 21:50:41;;;;;;;7.70;6.57;;;;;;;;;;10380431;28;20049;-58
2023/01/08 21:55:42;;;;;;;9.93;5.95;;;;;;;;;;10401067;28;20021;-55
2023/01/08 22:00:43;;;;;;;7.85;5.88;;;;;;;;;;10389609;28;20029;-58
2023/01/08 22:05:43;;;;;;;8.43;6.45;;;;;;;;;;10393362;28;20392;-48
2023/01/08 22:10:44;;;;;;;7.32;5.80;;;;;;;;;;10390084;28;20489;-49
2023/01/08 22:15:44;;;;;;;7.22;5.78;;;;;;;;;;10397687;28;20021;-55
2023/01/08 22:20:45;;;;;;;8.82;5.97;;;;;;;;;;10383905;28;20030;-55
2023/01/08 22:25:46;;;;;;;8.27;6.20;;;;;;;;;;10381732;28;20033;-52
2023/01/08 22:30:46;;;;;;;7.53;6.13;;;;;;;;;;10386883;28;20076;-46
2023/01/08 22:35:47;;;;;;;6.38;5.22;;;;;;;;;;10389924;28;20021;-48
2023/01/08 22:40:47;;;;;;;8.30;5.78;;;;;;;;;;10375764;28;20026;-51
2023/01/08 22:45:58;;;;;;;8.30;5.85;;;;;;;;;;10380108;28;20060;-49
2023/01/08 22:51:03;;;;;;;8.80;5.97;;;;;;;;;;10386835;28;20374;-50
2023/01/08 22:56:11;;;;;;;7.63;5.72;;;;;;;;;;10381312;28;20030;-54
2023/01/08 23:01:23;;;;;;;10.25;5.35;;;;;;;;;;10385453;28;20042;-56
2023/01/08 23:06:27;;;;;;;7.88;4.85;;;;;;;;;;10379623;28;20552;-57
2023/01/08 23:11:28;;;;;;;6.35;5.32;;;;;;;;;;10392122;28;20094;-46
2023/01/08 23:16:29;;;;;;;11.95;5.22;;;;;;;;;;10387883;28;20079;-57
2023/01/08 23:21:30;;;;;;;12.77;4.63;;;;;;;;;;10387550;28;20037;-56
2023/01/08 23:26:30;;;;;;;6.80;4.88;;;;;;;;;;10376765;28;20045;-55
2023/01/08 23:31:31;;;;;;;6.20;4.78;;;;;;;;;;10380847;28;20042;-56
2023/01/08 23:36:32;;;;;;;8.02;4.97;;;;;;;;;;10387732;28;20060;-59
2023/01/08 23:41:33;;;;;;;7.53;5.05;;;;;;;;;;10389777;28;20022;-45
2023/01/08 23:46:34;;;;;;;6.20;4.80;;;;;;;;;;10405830;28;20405;-46
2023/01/08 23:51:36;;;;;;;7.97;4.53;;;;;;;;;;10392315;28;20055;-58
2023/01/08 23:56:37;;;;;;;5.05;4.50;;;;;;;;;;10406067;28;20531;-56
